createdAt,value
2023-01-19T00:02:22.091Z,28.75
2023-01-19T00:05:28.004Z,29.57
2023-01-19T00:08:33.496Z,30.62
2023-01-19T00:11:40.286Z,26.40
2023-01-19T00:14:46.171Z,30.40
2023-01-19T00:17:52.581Z,29.27
2023-01-19T00:21:00.005Z,34.67
2023-01-19T00:24:06.577Z,31.80
2023-01-19T00:27:18.963Z,29.55
2023-01-19T00:30:26.143Z,29.65
2023-01-19T00:33:32.009Z,29.12
2023-01-19T00:36:37.977Z,29.60
2023-01-19T00:39:43.913Z,30.35
2023-01-19T00:42:51.650Z,30.32
2023-01-19T00:46:00.353Z,30.92
2023-01-19T00:49:05.640Z,31.57
2023-01-19T00:52:12.204Z,31.97
2023-01-19T00:55:17.904Z,31.17
2023-01-19T00:58:23.150Z,29.32
2023-01-19T01:01:46.234Z,27.48
2023-01-19T01:04:36.673Z,33.02
2023-01-19T01:07:43.765Z,32.33
2023-01-19T01:10:48.765Z,34.85
2023-01-19T01:13:54.143Z,31.25
2023-01-19T01:17:02.238Z,28.57
2023-01-19T01:20:08.505Z,31.62
2023-01-19T01:23:13.809Z,34.75
2023-01-19T01:26:20.381Z,28.57
2023-01-19T01:29:25.879Z,28.27
2023-01-19T01:32:31.331Z,32.67
2023-01-19T01:35:37.180Z,28.27
2023-01-19T01:38:42.073Z,26.95
2023-01-19T01:41:47.460Z,28.75
2023-01-19T01:45:06.577Z,31.48
2023-01-19T01:48:25.412Z,33.67
2023-01-19T01:51:44.801Z,29.98
2023-01-19T01:54:49.601Z,32.13
2023-01-19T01:57:58.001Z,29.40
2023-01-19T02:01:22.169Z,28.98
2023-01-19T02:04:27.813Z,28.47
2023-01-19T02:07:57.727Z,28.85
2023-01-19T02:11:21.211Z,25.20
2023-01-19T02:14:28.785Z,29.23
2023-01-19T02:17:34.662Z,30.50
2023-01-19T02:20:42.034Z,28.35
2023-01-19T02:23:59.221Z,29.90
2023-01-19T02:27:04.920Z,27.93
2023-01-19T02:30:10.254Z,34.60
2023-01-19T02:33:17.539Z,34.80
2023-01-19T02:36:25.250Z,30.43
2023-01-19T02:39:32.689Z,32.38
2023-01-19T02:42:42.389Z,27.48
2023-01-19T02:45:48.565Z,32.28
2023-01-19T02:48:54.172Z,31.50
2023-01-19T02:51:59.789Z,29.55
2023-01-19T02:55:29.249Z,31.37
2023-01-19T02:58:44.483Z,29.42
2023-01-19T03:02:24.096Z,29.75
2023-01-19T03:05:55.765Z,27.35
2023-01-19T03:09:07.862Z,32.40
2023-01-19T03:12:20.573Z,31.62
2023-01-19T03:15:35.026Z,31.02
2023-01-19T03:18:42.205Z,26.15
2023-01-19T03:21:50.769Z,37.58
2023-01-19T03:25:00.187Z,33.35
2023-01-19T03:28:08.620Z,29.70
2023-01-19T03:31:18.394Z,30.50
2023-01-19T03:34:25.488Z,30.65
2023-01-19T03:37:31.384Z,31.73
2023-01-19T03:40:36.191Z,31.93
2023-01-19T03:43:41.716Z,29.42
2023-01-19T03:46:49.690Z,31.42
2023-01-19T03:49:54.714Z,30.82
2023-01-19T03:53:01.481Z,36.08
2023-01-19T03:56:08.613Z,36.38
2023-01-19T03:59:14.865Z,34.73
2023-01-19T04:02:20.026Z,30.05
2023-01-19T04:05:25.840Z,32.73
2023-01-19T04:08:32.007Z,30.68
2023-01-19T04:11:38.145Z,28.80
2023-01-19T04:14:43.397Z,33.33
2023-01-19T04:17:48.563Z,36.35
2023-01-19T04:20:54.434Z,29.57
2023-01-19T04:24:01.871Z,35.30
2023-01-19T04:27:08.486Z,33.53
2023-01-19T04:30:14.752Z,34.65
2023-01-19T04:33:20.790Z,34.35
2023-01-19T04:36:26.811Z,32.25
2023-01-19T04:39:31.850Z,40.00
2023-01-19T04:42:39.555Z,34.08
2023-01-19T04:45:46.370Z,35.10
2023-01-19T04:48:53.570Z,31.60
2023-01-19T04:52:00.834Z,28.87
2023-01-19T04:55:05.449Z,32.25
2023-01-19T04:58:11.672Z,30.20
2023-01-19T05:01:19.225Z,31.68
2023-01-19T05:04:23.966Z,30.77
2023-01-19T05:07:29.858Z,34.88
2023-01-19T05:10:36.575Z,29.75
2023-01-19T05:13:42.428Z,31.00
2023-01-19T05:16:50.715Z,32.65
2023-01-19T05:19:56.997Z,35.08
2023-01-19T05:23:06.398Z,32.48
2023-01-19T05:26:13.749Z,34.20
2023-01-19T05:29:18.741Z,33.48
2023-01-19T05:32:25.860Z,28.47
2023-01-19T05:35:36.341Z,30.02
2023-01-19T05:38:38.109Z,32.63
2023-01-19T05:41:43.469Z,29.90
2023-01-19T05:44:49.395Z,30.48
2023-01-19T05:47:54.879Z,35.70
2023-01-19T05:51:01.000Z,34.43
2023-01-19T05:54:06.218Z,37.98
2023-01-19T05:57:11.561Z,35.58
2023-01-19T06:00:17.893Z,34.58
2023-01-19T06:03:23.002Z,31.70
2023-01-19T06:06:29.634Z,32.58
2023-01-19T06:09:36.393Z,34.45
2023-01-19T06:12:42.370Z,29.25
2023-01-19T06:15:47.797Z,37.05
2023-01-19T06:18:56.608Z,31.82
2023-01-19T06:22:04.178Z,31.33
2023-01-19T06:25:11.240Z,31.95
2023-01-19T06:28:21.161Z,31.42
2023-01-19T06:31:29.096Z,38.58
2023-01-19T06:34:37.168Z,30.65
2023-01-19T06:37:46.665Z,30.97
2023-01-19T06:40:53.665Z,34.63
2023-01-19T06:44:14.468Z,30.27
2023-01-19T06:47:20.977Z,32.58
2023-01-19T06:50:27.655Z,28.87
2023-01-19T06:53:37.816Z,29.75
2023-01-19T06:56:43.592Z,28.35
2023-01-19T06:59:52.490Z,29.20
2023-01-19T07:02:58.338Z,28.65
2023-01-19T07:06:09.204Z,31.75
2023-01-19T07:09:18.573Z,27.62
2023-01-19T07:15:36.156Z,32.35
2023-01-19T07:18:42.714Z,29.70
2023-01-19T07:21:49.617Z,24.67
2023-01-19T07:24:57.658Z,28.98
2023-01-19T07:28:02.492Z,30.27
2023-01-19T07:31:09.287Z,24.80
2023-01-19T07:34:16.286Z,25.23
2023-01-19T07:38:04.962Z,23.92
2023-01-19T07:41:26.144Z,32.38
2023-01-19T07:44:35.695Z,28.25
2023-01-19T07:50:54.898Z,27.15
2023-01-19T07:54:02.127Z,28.07
2023-01-19T07:57:11.027Z,31.10
2023-01-19T08:00:16.465Z,30.37
2023-01-19T08:03:22.138Z,25.20
2023-01-19T08:06:37.592Z,26.60
2023-01-19T08:09:44.955Z,29.40
2023-01-19T08:12:51.480Z,27.02
2023-01-19T08:15:59.418Z,23.83
2023-01-19T08:19:05.253Z,19.98
2023-01-19T08:22:13.811Z,20.92
2023-01-19T08:25:21.167Z,25.70
2023-01-19T08:28:30.869Z,25.17
2023-01-19T08:31:40.241Z,26.15
2023-01-19T08:34:46.981Z,22.42
2023-01-19T08:37:54.654Z,21.60
2023-01-19T08:41:04.893Z,25.32
2023-01-19T08:44:12.167Z,20.95
2023-01-19T08:47:19.876Z,23.65
2023-01-19T08:50:26.602Z,28.77
2023-01-19T08:53:32.874Z,15.90
2023-01-19T08:56:41.363Z,22.48
2023-01-19T08:59:45.978Z,22.77
2023-01-19T09:02:52.502Z,17.35
2023-01-19T09:05:59.141Z,21.12
2023-01-19T09:09:05.936Z,21.33
2023-01-19T09:12:10.712Z,18.75
2023-01-19T09:15:17.511Z,19.55
2023-01-19T09:18:25.818Z,19.05
2023-01-19T09:21:31.446Z,20.60
2023-01-19T09:24:38.708Z,17.15
2023-01-19T09:27:49.806Z,17.25
2023-01-19T09:30:58.744Z,22.07
2023-01-19T09:34:05.993Z,15.75
2023-01-19T09:37:12.423Z,16.73
2023-01-19T09:40:22.510Z,23.92
2023-01-19T09:43:49.824Z,18.85
2023-01-19T09:46:58.050Z,19.30
2023-01-19T09:50:14.741Z,15.55
2023-01-19T09:53:30.649Z,16.17
2023-01-19T09:56:35.892Z,22.35
2023-01-19T09:59:46.332Z,18.30
2023-01-19T10:03:01.601Z,16.10
2023-01-19T10:06:19.664Z,14.35
2023-01-19T10:09:49.315Z,14.58
2023-01-19T10:13:40.339Z,17.00
2023-01-19T10:17:07.548Z,16.20
2023-01-19T10:20:16.377Z,18.52
2023-01-19T10:23:29.747Z,18.12
2023-01-19T10:26:53.099Z,14.60
2023-01-19T10:29:59.329Z,18.05
2023-01-19T10:33:04.373Z,14.87
2023-01-19T10:36:11.656Z,12.60
2023-01-19T10:39:20.263Z,16.57
2023-01-19T10:42:29.542Z,13.38
2023-01-19T10:45:43.430Z,13.83
2023-01-19T10:48:58.115Z,14.93
2023-01-19T10:52:08.632Z,16.45
2023-01-19T10:55:19.669Z,15.15
2023-01-19T10:58:44.005Z,16.60
2023-01-19T11:01:51.568Z,14.30
2023-01-19T11:05:01.799Z,13.80
2023-01-19T11:08:07.392Z,13.53
2023-01-19T11:11:16.696Z,13.45
2023-01-19T11:14:29.766Z,12.80
2023-01-19T11:17:37.183Z,14.38
2023-01-19T11:20:48.141Z,13.83
2023-01-19T11:24:06.185Z,20.77
2023-01-19T11:27:14.187Z,14.20
2023-01-19T11:30:38.639Z,22.82
2023-01-19T11:33:59.340Z,18.30
2023-01-19T11:37:31.309Z,15.35
2023-01-19T11:40:38.465Z,15.00
2023-01-19T11:43:49.242Z,14.18
2023-01-19T11:46:52.356Z,14.35
2023-01-19T11:50:01.747Z,13.83
2023-01-19T11:53:16.420Z,9.95
2023-01-19T11:56:31.327Z,13.85
2023-01-19T11:59:36.439Z,17.27
2023-01-19T12:02:58.254Z,13.55
2023-01-19T12:06:06.576Z,13.70
2023-01-19T12:09:15.849Z,14.53
2023-01-19T12:12:40.749Z,11.38
2023-01-19T12:15:57.282Z,14.63
2023-01-19T12:19:20.258Z,10.03
2023-01-19T12:22:30.310Z,15.68
2023-01-19T12:25:40.980Z,13.65
2023-01-19T12:28:50.982Z,16.05
2023-01-19T12:31:58.576Z,19.00
2023-01-19T12:35:06.770Z,13.35
2023-01-19T12:38:13.033Z,11.50
2023-01-19T12:41:42.476Z,14.30
2023-01-19T12:44:48.049Z,10.53
2023-01-19T12:47:55.436Z,16.30
2023-01-19T12:51:02.389Z,14.85
2023-01-19T12:54:11.090Z,16.80
2023-01-19T12:57:21.626Z,13.32
2023-01-19T13:00:41.630Z,13.18
2023-01-19T13:04:18.857Z,19.87
2023-01-19T13:07:28.155Z,14.83
2023-01-19T13:11:19.141Z,12.88
2023-01-19T13:14:50.509Z,13.13
2023-01-19T13:18:09.771Z,13.65
2023-01-19T13:21:23.180Z,13.40
2023-01-19T13:24:30.781Z,13.43
2023-01-19T13:27:36.652Z,17.00
2023-01-19T13:30:43.613Z,20.08
2023-01-19T13:34:05.785Z,17.82
2023-01-19T13:37:13.358Z,13.70
2023-01-19T13:40:21.661Z,15.45
2023-01-19T13:43:41.333Z,14.47
2023-01-19T13:46:47.147Z,12.82
2023-01-19T13:49:55.737Z,16.67
2023-01-19T13:53:04.004Z,14.68
2023-01-19T13:56:35.650Z,12.05
2023-01-19T13:59:43.367Z,17.67
2023-01-19T14:02:48.704Z,15.68
2023-01-19T14:05:57.635Z,17.27
2023-01-19T14:09:24.392Z,15.70
2023-01-19T14:12:32.911Z,13.03
2023-01-19T14:15:38.774Z,13.95
2023-01-19T14:18:47.468Z,15.15
2023-01-19T14:21:54.647Z,16.27
2023-01-19T14:25:01.034Z,13.68
2023-01-19T14:28:07.028Z,16.65
2023-01-19T14:31:13.608Z,14.45
2023-01-19T14:34:19.201Z,16.42
2023-01-19T14:37:38.552Z,13.50
2023-01-19T14:40:44.419Z,12.07
2023-01-19T14:43:52.351Z,16.00
2023-01-19T14:47:02.160Z,13.38
2023-01-19T14:50:07.853Z,17.50
2023-01-19T14:53:22.959Z,13.08
2023-01-19T14:56:43.991Z,14.18
2023-01-19T14:59:51.721Z,24.05
2023-01-19T15:03:02.799Z,14.25
2023-01-19T15:06:11.373Z,19.15
2023-01-19T15:09:15.737Z,14.23
2023-01-19T15:12:21.905Z,13.35
2023-01-19T15:15:32.593Z,19.30
2023-01-19T15:18:40.382Z,16.93
2023-01-19T15:21:47.586Z,18.52
2023-01-19T15:24:53.103Z,15.45
2023-01-19T15:27:58.957Z,18.45
2023-01-19T15:31:04.875Z,21.77
2023-01-19T15:34:11.219Z,23.10
2023-01-19T15:37:16.383Z,20.05
2023-01-19T15:40:23.535Z,19.23
2023-01-19T15:43:29.511Z,18.37
2023-01-19T15:46:38.011Z,23.55
2023-01-19T15:49:42.839Z,23.45
2023-01-19T15:52:48.705Z,22.90
2023-01-19T15:55:53.840Z,23.65
2023-01-19T15:58:58.696Z,20.95
2023-01-19T16:02:04.464Z,18.10
2023-01-19T16:05:10.553Z,15.03
2023-01-19T16:08:18.296Z,22.60
2023-01-19T16:11:27.014Z,17.42
2023-01-19T16:14:33.323Z,14.03
2023-01-19T16:17:39.428Z,15.70
2023-01-19T16:20:46.056Z,15.80
2023-01-19T16:23:50.969Z,18.05
2023-01-19T16:26:59.386Z,17.82
2023-01-19T16:30:10.811Z,16.50
2023-01-19T16:33:19.377Z,18.37
2023-01-19T16:36:43.881Z,20.62
2023-01-19T16:39:52.047Z,15.90
2023-01-19T16:42:57.485Z,19.70
2023-01-19T16:46:17.489Z,21.70
2023-01-19T16:49:28.680Z,19.15
2023-01-19T16:52:33.778Z,18.00
2023-01-19T16:55:38.785Z,15.98
2023-01-19T16:58:47.467Z,17.40
2023-01-19T17:01:53.436Z,22.32
2023-01-19T17:04:59.401Z,20.12
2023-01-19T17:08:05.474Z,18.70
2023-01-19T17:11:11.287Z,21.40
2023-01-19T17:14:19.002Z,22.55
2023-01-19T17:17:24.604Z,21.82
2023-01-19T17:20:30.582Z,19.05
2023-01-19T17:23:35.557Z,22.55
2023-01-19T17:26:43.006Z,26.40
2023-01-19T17:29:49.931Z,24.98
2023-01-19T17:32:56.517Z,24.25
2023-01-19T17:36:02.294Z,21.23
2023-01-19T17:39:09.593Z,23.52
2023-01-19T17:42:15.860Z,21.48
2023-01-19T17:45:21.914Z,21.65
2023-01-19T17:48:28.726Z,26.40
2023-01-19T17:51:36.124Z,21.48
2023-01-19T17:54:42.410Z,26.85
2023-01-19T17:57:49.363Z,25.90
2023-01-19T18:00:56.455Z,25.30
2023-01-19T18:04:03.353Z,27.32
2023-01-19T18:07:08.534Z,23.75
2023-01-19T18:10:13.555Z,25.00
2023-01-19T18:13:18.842Z,27.32
2023-01-19T18:16:26.057Z,24.80
2023-01-19T18:19:30.949Z,26.57
2023-01-19T18:22:36.149Z,23.45
2023-01-19T18:25:42.227Z,28.98
2023-01-19T18:28:47.107Z,22.58
2023-01-19T18:31:53.276Z,23.57
2023-01-19T18:35:00.448Z,29.65
2023-01-19T18:38:05.980Z,26.52
2023-01-19T18:41:28.979Z,25.95
2023-01-19T18:44:35.613Z,23.35
2023-01-19T18:47:42.270Z,27.22
2023-01-19T18:50:47.735Z,27.93
2023-01-19T18:53:53.825Z,27.15
2023-01-19T18:57:02.044Z,29.75
2023-01-19T19:00:08.829Z,27.90
2023-01-19T19:03:18.358Z,30.72
2023-01-19T19:06:26.819Z,34.15
2023-01-19T19:09:33.755Z,31.85
2023-01-19T19:12:39.591Z,33.15
2023-01-19T19:15:45.905Z,30.62
2023-01-19T19:18:51.172Z,27.80
2023-01-19T19:21:58.962Z,31.05
2023-01-19T19:25:07.289Z,28.38
2023-01-19T19:28:12.716Z,32.30
2023-01-19T19:31:26.733Z,32.13
2023-01-19T19:34:31.308Z,31.57
2023-01-19T19:37:37.269Z,32.10
2023-01-19T19:40:42.581Z,33.67
2023-01-19T19:43:48.487Z,32.83
2023-01-19T19:46:54.801Z,33.78
2023-01-19T19:50:03.001Z,32.25
2023-01-19T19:53:08.996Z,33.50
2023-01-19T19:56:17.120Z,31.40
2023-01-19T19:59:23.133Z,33.15
2023-01-19T20:02:28.930Z,31.20
2023-01-19T20:05:36.180Z,34.85
2023-01-19T20:08:44.227Z,29.63
2023-01-19T20:11:50.573Z,30.43
2023-01-19T20:14:57.782Z,29.20
2023-01-19T20:18:04.103Z,35.28
2023-01-19T20:21:13.688Z,29.92
2023-01-19T20:24:23.972Z,33.92
2023-01-19T20:27:31.619Z,29.95
2023-01-19T20:30:37.302Z,35.58
2023-01-19T20:33:43.665Z,31.73
2023-01-19T20:36:54.594Z,31.05
2023-01-19T20:40:00.301Z,30.60
2023-01-19T20:43:06.667Z,29.27
2023-01-19T20:46:12.280Z,33.10
2023-01-19T20:49:18.214Z,33.95
2023-01-19T20:52:24.624Z,34.30
2023-01-19T20:55:30.838Z,33.63
2023-01-19T20:58:37.751Z,31.10
2023-01-19T21:01:43.693Z,34.35
2023-01-19T21:04:52.431Z,32.88
2023-01-19T21:07:58.164Z,30.65
2023-01-19T21:11:03.625Z,32.48
2023-01-19T21:14:09.080Z,35.08
2023-01-19T21:17:15.808Z,31.62
2023-01-19T21:20:24.320Z,32.58
2023-01-19T21:23:30.010Z,28.73
2023-01-19T21:26:39.305Z,43.65
2023-01-19T21:29:47.172Z,34.78
2023-01-19T21:32:55.516Z,35.95
2023-01-19T21:36:12.243Z,32.60
2023-01-19T21:39:19.719Z,31.93
2023-01-19T21:42:25.584Z,33.02
2023-01-19T21:45:32.309Z,33.10
2023-01-19T21:48:37.743Z,32.78
2023-01-19T21:51:45.567Z,33.98
2023-01-19T21:54:52.451Z,33.13
2023-01-19T21:57:58.932Z,33.63
2023-01-19T22:01:06.017Z,29.63
2023-01-19T22:04:12.078Z,32.05
2023-01-19T22:07:16.761Z,33.28
2023-01-19T22:10:25.024Z,33.45
2023-01-19T22:13:31.397Z,37.63
2023-01-19T22:16:37.740Z,37.23
2023-01-19T22:19:44.394Z,35.43
2023-01-19T22:22:50.156Z,33.65
2023-01-19T22:25:55.385Z,32.15
2023-01-19T22:29:02.182Z,32.20
2023-01-19T22:32:07.882Z,35.05
2023-01-19T22:35:13.100Z,32.75
2023-01-19T22:38:19.569Z,33.18
2023-01-19T22:41:38.533Z,31.12
2023-01-19T22:44:44.285Z,28.15
2023-01-19T22:47:50.805Z,32.55
2023-01-19T22:50:58.377Z,34.90
2023-01-19T22:54:04.018Z,30.65
2023-01-19T22:57:09.224Z,31.60
2023-01-19T23:00:15.315Z,31.25
2023-01-19T23:03:21.811Z,31.10
2023-01-19T23:06:30.416Z,32.23
2023-01-19T23:09:36.175Z,36.13
2023-01-19T23:12:41.680Z,38.28
2023-01-19T23:15:48.488Z,35.92
2023-01-19T23:18:54.843Z,33.35
2023-01-19T23:22:00.802Z,38.15
2023-01-19T23:25:06.031Z,40.70
2023-01-19T23:28:11.533Z,37.38
2023-01-19T23:31:18.350Z,34.85
2023-01-19T23:34:25.314Z,39.27
2023-01-19T23:37:30.974Z,37.40
2023-01-19T23:40:36.538Z,35.30
2023-01-19T23:43:42.638Z,32.50
2023-01-19T23:46:47.809Z,33.70
2023-01-19T23:49:53.825Z,33.67
2023-01-19T23:53:01.265Z,32.13
2023-01-19T23:56:07.642Z,34.85
2023-01-19T23:59:18.324Z,37.42
